createdAt,value
2022-09-24T00:01:57.764Z,98399.84
2022-09-24T00:04:03.443Z,98405.63
2022-09-24T00:06:06.671Z,98396.78
2022-09-24T00:08:09.035Z,98399.53
2022-09-24T00:10:10.785Z,98403.41
2022-09-24T00:12:13.206Z,98399.00
2022-09-24T00:14:16.339Z,98400.94
2022-09-24T00:16:20.506Z,98395.75
2022-09-24T00:18:22.784Z,98396.84
2022-09-24T00:20:24.518Z,98392.47
2022-09-24T00:22:26.069Z,98391.63
2022-09-24T00:24:46.336Z,98394.69
2022-09-24T00:26:51.073Z,98387.53
2022-09-24T00:28:53.080Z,98389.47
2022-09-24T00:30:55.458Z,98391.38
2022-09-24T00:32:56.938Z,98388.94
2022-09-24T00:34:59.659Z,98395.25
2022-09-24T00:37:01.361Z,98388.09
2022-09-24T00:39:04.773Z,98392.78
2022-09-24T00:41:06.472Z,98391.97
2022-09-24T00:43:28.178Z,98379.63
2022-09-24T00:45:31.109Z,98384.00
2022-09-24T00:47:39.315Z,98376.06
2022-09-24T00:49:44.727Z,98386.75
2022-09-24T00:51:50.403Z,98387.88
2022-09-24T00:53:56.634Z,98379.63
2022-09-24T00:55:59.840Z,98374.13
2022-09-24T00:58:04.104Z,98377.69
2022-09-24T01:00:07.435Z,98379.34
2022-09-24T01:02:09.080Z,98375.50
2022-09-24T01:04:14.414Z,98375.50
2022-09-24T01:06:16.167Z,98378.78
2022-09-24T01:08:19.182Z,98382.88
2022-09-24T01:10:49.497Z,98377.91
2022-09-24T01:13:03.026Z,98377.91
2022-09-24T01:15:04.477Z,98378.44
2022-09-24T01:17:25.314Z,98368.81
2022-09-24T01:20:07.310Z,98376.47
2022-09-24T01:22:27.561Z,98370.97
2022-09-24T01:24:38.578Z,98368.78
2022-09-24T01:26:43.328Z,98369.31
2022-09-24T01:29:27.028Z,98355.91
2022-09-24T01:31:54.870Z,98366.88
2022-09-24T01:33:58.778Z,98366.06
2022-09-24T01:36:08.363Z,98351.78
2022-09-24T01:38:15.071Z,98349.03
2022-09-24T01:40:18.830Z,98347.41
2022-09-24T01:42:23.138Z,98344.66
2022-09-24T01:44:26.070Z,98338.63
2022-09-24T01:46:32.092Z,98334.81
2022-09-24T01:48:40.239Z,98328.81
2022-09-24T01:51:05.525Z,98319.22
2022-09-24T01:53:21.537Z,98317.03
2022-09-24T01:55:28.393Z,98322.53
2022-09-24T01:57:35.231Z,98316.50
2022-09-24T01:59:42.112Z,98309.38
2022-09-24T02:01:50.360Z,98305.81
2022-09-24T02:03:57.678Z,98308.84
2022-09-24T02:06:04.109Z,98298.94
2022-09-24T02:08:11.664Z,98301.69
2022-09-24T02:10:17.979Z,98298.44
2022-09-24T02:12:29.820Z,98303.38
2022-09-24T02:14:36.539Z,98295.16
2022-09-24T02:16:45.528Z,98291.06
2022-09-24T02:18:50.159Z,98294.91
2022-09-24T02:20:53.130Z,98283.38
2022-09-24T02:22:57.315Z,98283.38
2022-09-24T02:25:03.996Z,98289.19
2022-09-24T02:27:05.643Z,98283.97
2022-09-24T02:29:07.639Z,98283.44
2022-09-24T02:31:16.533Z,98282.91
2022-09-24T02:33:39.020Z,98281.25
2022-09-24T02:35:40.773Z,98286.22
2022-09-24T02:37:44.480Z,98284.56
2022-09-24T02:39:47.418Z,98285.16
2022-09-24T02:41:50.177Z,98284.34
2022-09-24T02:43:52.685Z,98279.94
2022-09-24T02:45:54.565Z,98275.31
2022-09-24T02:47:56.104Z,98279.97
2022-09-24T02:49:57.660Z,98278.63
2022-09-24T02:51:59.685Z,98281.66
2022-09-24T02:54:01.792Z,98287.41
2022-09-24T02:56:04.077Z,98286.06
2022-09-24T02:58:05.541Z,98279.78
2022-09-24T03:00:07.935Z,98276.47
2022-09-24T03:02:09.687Z,98267.44
2022-09-24T03:04:15.551Z,98268.84
2022-09-24T03:06:17.327Z,98261.69
2022-09-24T03:08:20.340Z,98279.25
2022-09-24T03:10:21.895Z,98281.47
2022-09-24T03:12:23.480Z,98288.88
2022-09-24T03:14:27.193Z,98284.22
2022-09-24T03:16:28.888Z,98274.63
2022-09-24T03:18:30.398Z,98269.13
2022-09-24T03:20:32.242Z,98270.53
2022-09-24T03:22:34.026Z,98260.69
2022-09-24T03:24:35.745Z,98263.41
2022-09-24T03:26:39.556Z,98259.03
2022-09-24T03:28:41.445Z,98259.03
2022-09-24T03:31:02.471Z,98259.31
2022-09-24T03:33:04.577Z,98262.63
2022-09-24T03:35:08.773Z,98264.53
2022-09-24T03:37:10.366Z,98255.78
2022-09-24T03:39:12.966Z,98255.25
2022-09-24T03:41:16.790Z,98253.59
2022-09-24T03:43:18.529Z,98262.13
2022-09-24T03:45:20.070Z,98260.47
2022-09-24T03:47:21.641Z,98266.53
2022-09-24T03:49:23.611Z,98269.25
2022-09-24T03:51:25.942Z,98270.66
2022-09-24T03:53:27.528Z,98272.56
2022-09-24T03:55:29.128Z,98271.78
2022-09-24T03:57:30.955Z,98273.16
2022-09-24T03:59:32.407Z,98271.50
2022-09-24T04:01:37.317Z,98280.81
2022-09-24T04:03:40.510Z,98274.81
2022-09-24T04:05:42.294Z,98272.06
2022-09-24T04:07:45.061Z,98268.78
2022-09-24T04:09:46.643Z,98270.72
2022-09-24T04:11:52.560Z,98266.34
2022-09-24T04:13:54.150Z,98270.19
2022-09-24T04:15:58.302Z,98277.56
2022-09-24T04:18:00.093Z,98265.78
2022-09-24T04:20:01.812Z,98269.66
2022-09-24T04:22:03.937Z,98267.97
2022-09-24T04:24:05.779Z,98269.09
2022-09-24T04:26:07.370Z,98272.63
2022-09-24T04:28:10.290Z,98271.81
2022-09-24T04:30:15.190Z,98265.78
2022-09-24T04:32:16.773Z,98269.34
2022-09-24T04:34:18.336Z,98268.53
2022-09-24T04:36:22.169Z,98262.25
2022-09-24T04:38:24.354Z,98260.59
2022-09-24T04:40:27.063Z,98255.09
2022-09-24T04:42:28.695Z,98258.13
2022-09-24T04:44:31.295Z,98257.03
2022-09-24T04:46:37.919Z,98255.66
2022-09-24T04:48:42.147Z,98249.09
2022-09-24T04:50:46.357Z,98249.34
2022-09-24T04:52:52.518Z,98247.72
2022-09-24T04:54:54.577Z,98246.06
2022-09-24T04:56:56.096Z,98250.19
2022-09-24T04:58:58.752Z,98245.00
2022-09-24T05:01:03.839Z,98247.19
2022-09-24T05:03:05.799Z,98246.06
2022-09-24T05:05:08.318Z,98241.72
2022-09-24T05:07:10.414Z,98243.63
2022-09-24T05:09:12.857Z,98241.97
2022-09-24T05:11:14.563Z,98249.38
2022-09-24T05:13:16.384Z,98249.38
2022-09-24T05:15:25.577Z,98251.28
2022-09-24T05:17:27.066Z,98247.75
2022-09-24T05:19:28.676Z,98247.75
2022-09-24T05:21:31.512Z,98243.38
2022-09-24T05:23:33.109Z,98246.09
2022-09-24T05:25:54.672Z,98244.47
2022-09-24T05:27:57.087Z,98248.31
2022-09-24T05:29:59.994Z,98252.69
2022-09-24T05:32:12.297Z,98254.63
2022-09-24T05:34:14.340Z,98255.72
2022-09-24T05:36:19.509Z,98253.78
2022-09-24T05:38:21.361Z,98260.63
2022-09-24T05:40:41.399Z,98257.59
2022-09-24T05:42:43.221Z,98253.22
2022-09-24T05:44:47.507Z,98266.06
2022-09-24T05:46:53.435Z,98257.56
2022-09-24T05:48:57.933Z,98251.25
2022-09-24T05:51:03.473Z,98256.44
2022-09-24T05:53:06.357Z,98260.53
2022-09-24T05:55:10.051Z,98253.66
2022-09-24T05:57:15.613Z,98256.13
2022-09-24T05:59:20.401Z,98250.38
2022-09-24T06:01:22.117Z,98255.03
2022-09-24T06:03:23.782Z,98250.91
2022-09-24T06:05:25.655Z,98254.13
2022-09-24T06:07:33.414Z,98254.97
2022-09-24T06:09:35.029Z,98260.72
2022-09-24T06:11:40.370Z,98253.00
2022-09-24T06:13:42.614Z,98259.56
2022-09-24T06:15:44.665Z,98260.63
2022-09-24T06:17:47.100Z,98252.13
2022-09-24T06:19:51.720Z,98248.84
2022-09-24T06:21:53.272Z,98250.72
2022-09-24T06:23:54.929Z,98250.44
2022-09-24T06:25:57.215Z,98251.50
2022-09-24T06:28:01.582Z,98250.13
2022-09-24T06:30:04.874Z,98254.75
2022-09-24T06:32:06.359Z,98250.91
2022-09-24T06:34:08.151Z,98261.28
2022-09-24T06:36:09.875Z,98258.81
2022-09-24T06:38:13.972Z,98260.97
2022-09-24T06:40:16.176Z,98267.53
2022-09-24T06:42:17.955Z,98265.03
2022-09-24T06:44:19.939Z,98268.28
2022-09-24T06:46:25.954Z,98273.97
2022-09-24T06:48:28.902Z,98270.59
2022-09-24T06:50:32.233Z,98268.56
2022-09-24T06:52:34.472Z,98274.28
2022-09-24T06:54:36.125Z,98273.69
2022-09-24T06:56:37.907Z,98281.28
2022-09-24T06:58:39.615Z,98267.44
2022-09-24T07:00:43.243Z,98276.09
2022-09-24T07:02:54.500Z,98279.78
2022-09-24T07:04:56.065Z,98278.50
2022-09-24T07:07:16.554Z,98271.66
2022-09-24T07:09:18.461Z,98275.81
2022-09-24T07:11:20.320Z,98273.59
2022-09-24T07:13:22.385Z,98271.38
2022-09-24T07:15:24.250Z,98262.97
2022-09-24T07:17:32.913Z,98263.44
2022-09-24T07:19:35.532Z,98264.25
2022-09-24T07:21:38.076Z,98272.75
2022-09-24T07:23:40.836Z,98272.25
2022-09-24T07:25:42.429Z,98273.19
2022-09-24T07:27:44.170Z,98278.28
2022-09-24T07:29:45.725Z,98283.69
2022-09-24T07:31:47.305Z,98281.66
2022-09-24T07:33:49.042Z,98287.09
2022-09-24T07:35:51.099Z,98286.97
2022-09-24T07:38:12.265Z,98288.53
2022-09-24T07:40:14.146Z,98279.81
2022-09-24T07:42:15.869Z,98276.00
2022-09-24T07:44:18.217Z,98275.72
2022-09-24T07:46:20.204Z,98277.19
2022-09-24T07:48:21.996Z,98277.25
2022-09-24T07:50:23.883Z,98278.88
2022-09-24T07:52:25.724Z,98281.34
2022-09-24T07:54:27.792Z,98278.25
2022-09-24T07:56:32.213Z,98279.00
2022-09-24T07:58:33.870Z,98271.44
2022-09-24T08:00:35.626Z,98263.56
2022-09-24T08:02:37.425Z,98260.50
2022-09-24T08:04:39.097Z,98261.00
2022-09-24T08:06:46.584Z,98270.00
2022-09-24T08:08:49.789Z,98272.16
2022-09-24T08:10:52.072Z,98277.38
2022-09-24T08:12:54.100Z,98274.59
2022-09-24T08:14:55.797Z,98268.38
2022-09-24T08:16:58.592Z,98267.22
2022-09-24T08:19:01.184Z,98268.84
2022-09-24T08:21:12.075Z,98263.91
2022-09-24T08:23:13.866Z,98261.25
2022-09-24T08:25:15.650Z,98260.63
2022-09-24T08:27:17.773Z,98262.69
2022-09-24T08:29:19.407Z,98260.69
2022-09-24T08:31:23.524Z,98265.38
2022-09-24T08:33:25.273Z,98269.59
2022-09-24T08:35:27.417Z,98267.09
2022-09-24T08:37:29.192Z,98266.25
2022-09-24T08:39:30.959Z,98269.78
2022-09-24T08:41:57.152Z,98265.00
2022-09-24T08:44:08.494Z,98264.66
2022-09-24T08:46:37.405Z,98265.38
2022-09-24T08:48:42.355Z,98267.75
2022-09-24T08:50:58.223Z,98272.91
2022-09-24T08:53:07.177Z,98276.94
2022-09-24T08:55:23.220Z,98280.44
2022-09-24T08:57:25.988Z,98291.66
2022-09-24T08:59:30.862Z,98280.13
2022-09-24T09:01:42.002Z,98272.16
2022-09-24T09:03:48.169Z,98275.00
2022-09-24T09:05:59.415Z,98271.41
2022-09-24T09:08:21.343Z,98266.22
2022-09-24T09:10:33.059Z,98267.28
2022-09-24T09:12:38.706Z,98269.03
2022-09-24T09:15:11.177Z,98287.38
2022-09-24T09:17:28.971Z,98287.38
2022-09-24T09:19:34.717Z,98282.28
2022-09-24T09:21:42.330Z,98291.53
2022-09-24T09:23:48.876Z,98286.59
2022-09-24T09:25:56.145Z,98286.38
2022-09-24T09:28:07.500Z,98284.19
2022-09-24T09:30:21.902Z,98286.28
2022-09-24T09:32:59.233Z,98282.00
2022-09-24T09:35:40.492Z,98289.16
2022-09-24T09:37:58.611Z,98291.63
2022-09-24T09:40:32.179Z,98291.94
2022-09-24T09:42:42.775Z,98290.00
2022-09-24T09:44:46.174Z,98294.75
2022-09-24T09:47:01.292Z,98291.50
2022-09-24T09:49:07.354Z,98298.34
2022-09-24T09:51:21.391Z,98296.38
2022-09-24T09:53:26.857Z,98292.41
2022-09-24T09:55:33.099Z,98297.19
2022-09-24T09:57:36.659Z,98291.63
2022-09-24T09:59:38.836Z,98283.25
2022-09-24T10:01:43.125Z,98283.59
2022-09-24T10:03:44.785Z,98280.47
2022-09-24T10:06:00.025Z,98286.97
2022-09-24T10:08:01.985Z,98283.50
2022-09-24T10:10:21.235Z,98282.00
2022-09-24T10:12:24.177Z,98275.22
2022-09-24T10:14:25.827Z,98269.78
2022-09-24T10:16:27.540Z,98274.53
2022-09-24T10:18:43.780Z,98274.53
2022-09-24T10:20:48.438Z,98272.13
2022-09-24T10:22:53.343Z,98265.25
2022-09-24T10:24:57.472Z,98269.56
2022-09-24T10:26:59.224Z,98268.63
2022-09-24T10:29:20.235Z,98271.31
2022-09-24T10:31:25.426Z,98271.53
2022-09-24T10:33:35.060Z,98267.00
2022-09-24T10:35:38.744Z,98273.59
2022-09-24T10:37:50.817Z,98270.25
2022-09-24T10:40:13.545Z,98268.44
2022-09-24T10:42:26.968Z,98268.66
2022-09-24T10:44:36.869Z,98270.53
2022-09-24T10:46:38.547Z,98272.84
2022-09-24T10:48:49.793Z,98269.63
2022-09-24T10:51:29.586Z,98264.72
2022-09-24T10:53:47.794Z,98271.81
2022-09-24T10:56:08.046Z,98269.34
2022-09-24T10:58:41.510Z,98267.59
2022-09-24T11:01:06.703Z,98261.94
2022-09-24T11:03:29.569Z,98263.88
2022-09-24T11:05:35.894Z,98261.78
2022-09-24T11:07:56.534Z,98262.47
2022-09-24T11:10:22.042Z,98253.31
2022-09-24T11:12:54.439Z,98250.19
2022-09-24T11:15:11.884Z,98255.88
2022-09-24T11:17:40.032Z,98251.78
2022-09-24T11:20:27.855Z,98251.56
2022-09-24T11:22:51.698Z,98244.50
2022-09-24T11:25:02.781Z,98247.78
2022-09-24T11:27:25.507Z,98246.59
2022-09-24T11:29:47.838Z,98246.16
2022-09-24T11:32:00.784Z,98246.97
2022-09-24T11:34:14.255Z,98239.75
2022-09-24T11:36:52.682Z,98238.00
2022-09-24T11:39:23.142Z,98246.72
2022-09-24T11:41:49.689Z,98241.03
2022-09-24T11:44:03.645Z,98243.81
2022-09-24T11:46:40.515Z,98246.94
2022-09-24T11:49:24.902Z,98246.44
2022-09-24T11:51:52.648Z,98252.84
2022-09-24T11:54:20.843Z,98250.19
2022-09-24T11:56:30.189Z,98238.00
2022-09-24T11:58:36.711Z,98241.03
2022-09-24T12:00:49.446Z,98235.25
2022-09-24T12:02:59.192Z,98229.59
2022-09-24T12:05:09.298Z,98239.44
2022-09-24T12:07:15.293Z,98233.00
2022-09-24T12:09:25.060Z,98226.81
2022-09-24T12:11:57.246Z,98234.63
2022-09-24T12:14:20.002Z,98231.13
2022-09-24T12:16:26.494Z,98237.97
2022-09-24T12:18:50.688Z,98219.28
2022-09-24T12:20:57.086Z,98226.50
2022-09-24T12:23:21.628Z,98218.47
2022-09-24T12:25:23.344Z,98225.66
2022-09-24T12:27:44.945Z,98226.50
2022-09-24T12:30:19.406Z,98232.53
2022-09-24T12:32:55.043Z,98222.66
2022-09-24T12:35:24.984Z,98222.78
2022-09-24T12:37:34.661Z,98216.47
2022-09-24T12:39:44.511Z,98225.31
2022-09-24T12:42:05.465Z,98225.31
2022-09-24T12:44:10.301Z,98224.63
2022-09-24T12:46:28.756Z,98218.25
2022-09-24T12:48:37.277Z,98223.00
2022-09-24T12:50:39.710Z,98225.31
2022-09-24T12:52:43.328Z,98219.75
2022-09-24T12:54:56.634Z,98213.69
2022-09-24T12:57:07.199Z,98203.72
2022-09-24T12:59:24.351Z,98204.53
2022-09-24T13:01:32.065Z,98210.91
2022-09-24T13:03:44.610Z,98212.09
2022-09-24T13:05:48.659Z,98214.88
2022-09-24T13:08:24.722Z,98213.22
2022-09-24T13:10:32.054Z,98204.53
2022-09-24T13:12:33.817Z,98206.59
2022-09-24T13:14:35.598Z,98205.13
2022-09-24T13:16:39.827Z,98205.66
2022-09-24T13:18:43.544Z,98208.69
2022-09-24T13:20:59.943Z,98206.13
2022-09-24T13:23:20.466Z,98201.59
2022-09-24T13:25:24.935Z,98198.56
2022-09-24T13:27:31.775Z,98195.53
2022-09-24T13:29:38.739Z,98192.81
2022-09-24T13:31:47.666Z,98189.34
2022-09-24T13:34:08.320Z,98199.69
2022-09-24T13:36:18.192Z,98192.50
2022-09-24T13:38:29.302Z,98188.06
2022-09-24T13:40:36.039Z,98190.41
2022-09-24T13:42:46.473Z,98191.94
2022-09-24T13:44:57.113Z,98192.28
2022-09-24T13:47:21.521Z,98186.97
2022-09-24T13:49:24.563Z,98191.34
2022-09-24T13:51:30.849Z,98190.91
2022-09-24T13:53:49.371Z,98187.97
2022-09-24T13:55:57.220Z,98193.44
2022-09-24T13:57:59.017Z,98183.13
2022-09-24T14:00:20.790Z,98184.63
2022-09-24T14:02:25.577Z,98186.94
2022-09-24T14:04:27.790Z,98182.53
2022-09-24T14:06:40.193Z,98183.69
2022-09-24T14:08:45.135Z,98176.03
2022-09-24T14:10:51.361Z,98178.03
2022-09-24T14:13:02.263Z,98184.63
2022-09-24T14:15:17.749Z,98173.84
2022-09-24T14:17:20.103Z,98181.75
2022-09-24T14:19:23.461Z,98182.09
2022-09-24T14:21:38.182Z,98175.25
2022-09-24T14:23:56.062Z,98179.91
2022-09-24T14:26:00.031Z,98173.06
2022-09-24T14:28:04.171Z,98183.75
2022-09-24T14:30:08.295Z,98169.34
2022-09-24T14:32:42.261Z,98169.25
2022-09-24T14:34:44.420Z,98179.13
2022-09-24T14:36:46.093Z,98171.59
2022-09-24T14:38:58.006Z,98173.09
2022-09-24T14:41:15.314Z,98169.50
2022-09-24T14:43:31.314Z,98164.72
2022-09-24T14:45:38.054Z,98164.72
2022-09-24T14:47:39.801Z,98176.34
2022-09-24T14:49:45.578Z,98167.53
2022-09-24T14:51:54.763Z,98165.53
2022-09-24T14:54:19.114Z,98165.06
2022-09-24T14:56:27.303Z,98165.75
2022-09-24T14:58:28.938Z,98167.41
2022-09-24T15:00:46.789Z,98170.06
2022-09-24T15:03:02.685Z,98167.94
2022-09-24T15:05:09.961Z,98168.56
2022-09-24T15:07:16.609Z,98161.47
2022-09-24T15:09:32.804Z,98168.44
2022-09-24T15:11:43.153Z,98168.69
2022-09-24T15:13:45.560Z,98156.97
2022-09-24T15:15:47.583Z,98164.75
2022-09-24T15:17:49.114Z,98158.22
2022-09-24T15:19:54.739Z,98164.47
2022-09-24T15:22:00.225Z,98165.88
2022-09-24T15:24:02.455Z,98162.16
2022-09-24T15:26:04.717Z,98157.28
2022-09-24T15:28:13.787Z,98163.44
2022-09-24T15:30:20.562Z,98173.63
2022-09-24T15:32:22.147Z,98162.41
2022-09-24T15:34:23.899Z,98169.78
2022-09-24T15:36:28.068Z,98163.31
2022-09-24T15:38:30.061Z,98165.16
2022-09-24T15:40:33.845Z,98162.63
2022-09-24T15:42:35.484Z,98164.81
2022-09-24T15:44:37.163Z,98159.09
2022-09-24T15:46:38.750Z,98168.13
2022-09-24T15:48:42.462Z,98163.59
2022-09-24T15:50:46.367Z,98164.28
2022-09-24T15:52:59.125Z,98166.94
2022-09-24T15:55:02.628Z,98167.97
2022-09-24T15:57:04.290Z,98163.09
2022-09-24T15:59:14.482Z,98168.50
2022-09-24T16:01:19.923Z,98171.97
2022-09-24T16:03:29.980Z,98165.47
2022-09-24T16:05:31.886Z,98170.22
2022-09-24T16:07:33.409Z,98172.88
2022-09-24T16:09:35.281Z,98169.63
2022-09-24T16:11:36.860Z,98174.72
2022-09-24T16:13:38.639Z,98172.97
2022-09-24T16:15:40.871Z,98170.03
2022-09-24T16:17:43.634Z,98169.94
2022-09-24T16:19:45.344Z,98170.59
2022-09-24T16:21:53.220Z,98164.91
2022-09-24T16:23:56.094Z,98163.97
2022-09-24T16:25:59.379Z,98167.78
2022-09-24T16:28:01.485Z,98164.84
2022-09-24T16:30:04.968Z,98166.34
2022-09-24T16:32:06.927Z,98166.56
2022-09-24T16:34:08.851Z,98169.19
2022-09-24T16:36:11.078Z,98174.28
2022-09-24T16:38:12.788Z,98177.22
2022-09-24T16:40:15.501Z,98175.13
2022-09-24T16:42:17.277Z,98180.56
2022-09-24T16:44:19.462Z,98180.09
2022-09-24T16:46:24.286Z,98176.34
2022-09-24T16:48:26.080Z,98179.78
2022-09-24T16:50:28.207Z,98184.41
2022-09-24T16:52:31.426Z,98189.03
2022-09-24T16:54:36.005Z,98187.72
2022-09-24T16:56:38.601Z,98185.63
2022-09-24T16:58:45.065Z,98186.63
2022-09-24T17:00:46.505Z,98185.34
2022-09-24T17:02:48.119Z,98182.41
2022-09-24T17:04:49.949Z,98179.47
2022-09-24T17:06:54.710Z,98182.13
2022-09-24T17:09:18.121Z,98172.03
2022-09-24T17:11:21.402Z,98176.63
2022-09-24T17:13:23.159Z,98170.13
2022-09-24T17:15:24.860Z,98181.06
2022-09-24T17:17:26.404Z,98179.31
2022-09-24T17:19:28.117Z,98172.78
2022-09-24T17:21:29.910Z,98179.00
2022-09-24T17:23:31.452Z,98179.66
2022-09-24T17:25:33.068Z,98184.22
2022-09-24T17:27:40.197Z,98180.16
2022-09-24T17:29:43.037Z,98180.00
2022-09-24T17:31:46.762Z,98190.13
2022-09-24T17:33:55.807Z,98184.75
2022-09-24T17:36:03.983Z,98193.28
2022-09-24T17:38:07.790Z,98187.25
2022-09-24T17:40:11.078Z,98191.03
2022-09-24T17:42:12.875Z,98190.06
2022-09-24T17:44:14.483Z,98189.91
2022-09-24T17:46:21.621Z,98197.75
2022-09-24T17:48:23.617Z,98196.75
2022-09-24T17:50:25.220Z,98198.22
2022-09-24T17:52:27.994Z,98202.00
2022-09-24T17:54:32.029Z,98191.91
2022-09-24T17:56:38.588Z,98195.31
2022-09-24T17:58:44.722Z,98196.78
2022-09-24T18:00:47.354Z,98203.34
2022-09-24T18:02:56.668Z,98206.75
2022-09-24T18:04:58.221Z,98207.41
2022-09-24T18:07:00.004Z,98197.00
2022-09-24T18:09:04.887Z,98200.41
2022-09-24T18:11:13.188Z,98199.41
2022-09-24T18:13:16.505Z,98202.03
2022-09-24T18:15:18.232Z,98203.50
2022-09-24T18:17:20.079Z,98204.97
2022-09-24T18:19:23.237Z,98211.16
2022-09-24T18:21:31.270Z,98206.59
2022-09-24T18:23:35.215Z,98203.66
2022-09-24T18:25:36.935Z,98211.81
2022-09-24T18:27:38.552Z,98214.41
2022-09-24T18:29:46.627Z,98215.06
2022-09-24T18:31:51.757Z,98216.88
2022-09-24T18:33:56.749Z,98217.81
2022-09-24T18:36:02.544Z,98217.66
2022-09-24T18:38:03.991Z,98215.53
2022-09-24T18:40:06.300Z,98212.59
2022-09-24T18:42:08.007Z,98220.75
2022-09-24T18:44:15.332Z,98219.75
2022-09-24T18:46:19.317Z,98222.38
2022-09-24T18:48:21.375Z,98224.66
2022-09-24T18:50:26.273Z,98224.47
2022-09-24T18:52:28.855Z,98225.94
2022-09-24T18:54:31.126Z,98230.16
2022-09-24T18:56:33.370Z,98222.81
2022-09-24T18:58:35.401Z,98229.47
2022-09-24T19:00:51.071Z,98220.16
2022-09-24T19:02:54.548Z,98228.00
2022-09-24T19:04:59.064Z,98220.31
2022-09-24T19:07:01.062Z,98235.28
2022-09-24T19:09:07.731Z,98231.22
2022-09-24T19:11:15.723Z,98233.81
2022-09-24T19:13:23.939Z,98225.00
2022-09-24T19:15:28.313Z,98233.97
2022-09-24T19:17:30.164Z,98229.88
2022-09-24T19:19:32.275Z,98226.59
2022-09-24T19:21:37.200Z,98228.88
2022-09-24T19:23:41.287Z,98228.38
2022-09-24T19:25:49.310Z,98227.06
2022-09-24T19:27:51.116Z,98227.41
2022-09-24T19:29:53.776Z,98231.09
2022-09-24T19:31:55.313Z,98221.19
2022-09-24T19:33:58.674Z,98217.94
2022-09-24T19:36:02.938Z,98222.16
2022-09-24T19:38:04.639Z,98220.84
2022-09-24T19:40:13.199Z,98225.84
2022-09-24T19:42:15.134Z,98232.84
2022-09-24T19:44:17.386Z,98234.00
2022-09-24T19:46:24.140Z,98229.09
2022-09-24T19:48:30.984Z,98232.50
2022-09-24T19:50:34.388Z,98236.72
2022-09-24T19:52:35.876Z,98231.50
2022-09-24T19:54:40.782Z,98235.72
2022-09-24T19:56:42.337Z,98224.16
2022-09-24T19:58:47.273Z,98231.16
2022-09-24T20:00:49.058Z,98231.44
2022-09-24T20:02:51.843Z,98232.06
2022-09-24T20:04:56.472Z,98231.28
2022-09-24T20:07:02.316Z,98232.22
2022-09-24T20:09:09.554Z,98225.38
2022-09-24T20:11:15.085Z,98222.09
2022-09-24T20:13:17.115Z,98228.25
2022-09-24T20:15:22.255Z,98226.13
2022-09-24T20:17:24.055Z,98227.53
2022-09-24T20:19:26.009Z,98221.53
2022-09-24T20:21:35.062Z,98224.41
2022-09-24T20:23:42.404Z,98226.69
2022-09-24T20:26:14.680Z,98232.00
2022-09-24T20:28:19.551Z,98219.63
2022-09-24T20:30:23.901Z,98222.25
2022-09-24T20:32:25.479Z,98230.03
2022-09-24T20:34:43.579Z,98229.81
2022-09-24T20:36:45.177Z,98220.53
2022-09-24T20:38:47.826Z,98216.47
2022-09-24T20:40:49.753Z,98221.47
2022-09-24T20:42:51.480Z,98228.13
2022-09-24T20:44:53.546Z,98229.59
2022-09-24T20:46:58.095Z,98220.78
2022-09-24T20:49:03.275Z,98223.84
2022-09-24T20:51:13.652Z,98233.59
2022-09-24T20:53:15.337Z,98233.09
2022-09-24T20:55:17.038Z,98228.69
2022-09-24T20:57:18.712Z,98230.94
2022-09-24T20:59:20.540Z,98228.50
2022-09-24T21:01:22.530Z,98236.28
2022-09-24T21:03:43.260Z,98224.72
2022-09-24T21:05:49.156Z,98232.50
2022-09-24T21:07:55.339Z,98235.59
2022-09-24T21:09:57.091Z,98235.09
2022-09-24T21:11:58.594Z,98244.81
2022-09-24T21:14:03.854Z,98241.22
2022-09-24T21:16:05.648Z,98252.56
2022-09-24T21:18:22.398Z,98241.03
2022-09-24T21:20:28.850Z,98247.69
2022-09-24T21:22:30.342Z,98247.16
2022-09-24T21:24:32.052Z,98257.41
2022-09-24T21:26:36.289Z,98253.34
2022-09-24T21:28:37.984Z,98259.97
2022-09-24T21:30:42.538Z,98253.94
2022-09-24T21:32:45.086Z,98251.19
2022-09-24T21:34:46.797Z,98239.66
2022-09-24T21:36:48.738Z,98255.38
2022-09-24T21:38:58.557Z,98254.06
2022-09-24T21:41:01.253Z,98255.19
2022-09-24T21:43:05.868Z,98252.75
2022-09-24T21:45:08.278Z,98257.44
2022-09-24T21:47:09.783Z,98260.53
2022-09-24T21:49:16.312Z,98254.19
2022-09-24T21:51:21.988Z,98257.22
2022-09-24T21:53:23.547Z,98248.41
2022-09-24T21:55:25.688Z,98252.31
2022-09-24T21:57:27.301Z,98262.22
2022-09-24T21:59:47.613Z,98252.31
2022-09-24T22:01:49.407Z,98248.22
2022-09-24T22:03:52.515Z,98252.94
2022-09-24T22:05:55.077Z,98247.69
2022-09-24T22:07:56.637Z,98258.44
2022-09-24T22:09:59.373Z,98255.97
2022-09-24T22:12:04.542Z,98248.84
2022-09-24T22:14:06.338Z,98246.38
2022-09-24T22:16:10.678Z,98247.19
2022-09-24T22:18:12.164Z,98248.34
2022-09-24T22:20:13.907Z,98247.53
2022-09-24T22:22:16.698Z,98242.28
2022-09-24T22:24:21.298Z,98242.28
2022-09-24T22:26:27.260Z,98235.16
2022-09-24T22:28:29.469Z,98248.94
2022-09-24T22:30:34.178Z,98239.84
2022-09-24T22:32:35.863Z,98244.53
2022-09-24T22:34:56.227Z,98246.19
2022-09-24T22:36:57.785Z,98239.34
2022-09-24T22:39:00.564Z,98245.69
2022-09-24T22:41:03.991Z,98246.81
2022-09-24T22:43:08.289Z,98245.97
2022-09-24T22:45:13.671Z,98241.59
2022-09-24T22:47:15.143Z,98239.97
2022-09-24T22:49:19.670Z,98249.06
2022-09-24T22:51:21.763Z,98240.28
2022-09-24T22:53:23.480Z,98239.47
2022-09-24T22:55:25.100Z,98237.81
2022-09-24T22:57:29.504Z,98243.66
2022-09-24T22:59:31.445Z,98236.81
2022-09-24T23:01:38.990Z,98230.47
2022-09-24T23:03:41.220Z,98236.00
2022-09-24T23:05:43.147Z,98232.41
2022-09-24T23:07:44.932Z,98225.28
2022-09-24T23:09:47.409Z,98223.63
2022-09-24T23:11:48.823Z,98222.81
2022-09-24T23:13:59.737Z,98221.19
2022-09-24T23:16:34.700Z,98220.97
2022-09-24T23:18:37.641Z,98222.63
2022-09-24T23:20:39.152Z,98222.63
2022-09-24T23:22:40.721Z,98232.50
2022-09-24T23:24:42.838Z,98223.72
2022-09-24T23:26:45.467Z,98219.88
2022-09-24T23:29:00.950Z,98219.03
2022-09-24T23:31:06.460Z,98221.78
2022-09-24T23:33:07.884Z,98221.78
2022-09-24T23:35:12.383Z,98211.88
2022-09-24T23:37:13.911Z,98217.38
2022-09-24T23:39:15.418Z,98215.78
2022-09-24T23:41:17.384Z,98218.53
2022-09-24T23:43:19.855Z,98222.09
2022-09-24T23:45:21.589Z,98224.06
2022-09-24T23:47:23.219Z,98221.28
2022-09-24T23:49:24.765Z,98214.13
2022-09-24T23:51:26.433Z,98221.91
2022-09-24T23:53:28.082Z,98207.59
2022-09-24T23:55:29.596Z,98217.81
2022-09-24T23:57:31.015Z,98212.59
2022-09-24T23:59:32.921Z,98220.03
